AirNav   Air Wisconsin pilot careers
 
 1204 users online  

19LS Riverside Medical Center Heliport
Franklinton, Louisiana, USA

GOING TO FRANKLINTON?


FAA INFORMATION EFFECTIVE 12 SEPTEMBER 2019

Location

FAA Identifier: 19LS
Lat/Long: 30-50-03.5600N 090-09-12.8900W
30-50.059333N 090-09.214833W
30.8343222,-90.1535806
(estimated)
Elevation: 146 ft. / 45 m (estimated)
Time zone: UTC -5 (UTC -6 during Standard Time)
Zip code: 70438

Heliport Operations

Heliport use: Private use. Permission required prior to landing
Activation date: 07/2009
Control tower: no
ARTCC: HOUSTON CENTER
FSS: DE RIDDER FLIGHT SERVICE STATION
Attendance: UNATNDD
Wind indicator: lighted
Segmented circle: no

Heliport Communications

WX AWOS-3PT at BXA (15 nm E): 118.025 (985-732-6224)

Nearby radio navigation aids

VOR radial/distance  VOR name  Freq  Var
HMUr036/(23.3)HAMMOND VOR109.6000E
PCUr302/27.3PICAYUNE VOR/DME112.2005E
MCBr166/28.7MC COMB VORTAC116.7003E

 
NDB name  Hdg/Dist  Freq  Var  ID
BOGALUSA259/15.335300WGVB --. ...- -...

Heliport Services

Runway Information

Helipad H1

Dimensions: 40 x 40 ft. / 12 x 12 m
Surface: concrete
Runway edge lights: PERI
Latitude: 30-50.059333N
Longitude: 090-09.214833W
Elevation: 146.0 ft.
Traffic pattern: leftleft

Heliport Ownership and Management from official FAA records

Ownership: Privately-owned
Owner: RIVERSIDE MEDICAL CENTER
1900 S MAIN ST
FRANKLINTON, LA 70438
Phone 985-839-4431
Manager: SHAD JENKINS
1900 S MAIN ST
FRANKLINTON, LA 70438
Phone 985-795-4259

Additional Remarks

A52-H1 42 INCH POLE 6 FT W OF PAD; 25 FT POLE 80 FT W OF PAD.
OWNER DESIRES THIS ARPT NOT BE CHARTED.
FOR CD CTC HOUSTON ARTCC AT 281-230-5622.

Instrument Procedures

There are no published instrument procedures at 19LS.

Some nearby airports with instrument procedures:

KBXA - George R Carr Memorial Air Field (15 nm E)
KHDC - Hammond Northshore Regional Airport (23 nm SW)
KMCB - Mc Comb (Pike County) Airport/John E Lewis Field (26 nm NW)
0R0 - Columbia-Marion County Airport (33 nm NE)
KMJD - Picayune Municipal Airport (33 nm SE)
 
Loc | Ops | Rwys | IFR | FBO | Links
Com | Nav | Svcs | Stats | Notes
Aerial photo
No photo
 
Sectional chart

 
Airport distance calculator
Flying to Riverside Medical Center Heliport? Find the distance to fly.

From to 19LS

Sunrise and sunset
Times for 20-Sep-2019
 Local
(UTC-5)
 Zulu
(UTC)
Morning civil twilight06:2511:25
Sunrise06:4911:49
Sunset18:5923:59
Evening civil twilight19:2300:23

Current date and time
Zulu (UTC)  20-Sep-2019 21:25:32
Local (UTC-5)  20-Sep-2019 16:25:32
 
METAR
KBXA 
15nm E 
202055Z AUTO 08007KT 10SM SCT050 SCT070 32/17 A3009 RMK AO2 T03220166
KHDC 
23nm SW 
202055Z AUTO 15012G17KT 10SM SCT048 SCT060 BKN075 31/22 A3008 RMK AO2 PWINO
KMCB 
26nm NW 
202053Z AUTO 09008KT 10SM FEW050 32/18 A3008 RMK AO2 SLP181 T03170183 56016
TAF
KHDC 
23nm SW 
201733Z 2018/2118 15010KT P6SM VCTS BKN040CB BKN045 BKN060 FM202300 12007KT P6SM VCTS FEW070CB FEW100 FM210000 12006KT P6SM FEW050 FEW250 FM211300 08005KT P6SM FEW040 SCT130 FM211600 11008KT P6SM FEW030 SCT045
KMCB 
26nm NW 
201733Z 2018/2118 14010KT P6SM FEW035 FM202200 11007KT P6SM FEW080 SCT110 FM210600 VRB03KT P6SM SKC FM211200 VRB03KT P6SM FEW060 FEW090 FM211400 10006KT P6SM FEW025 FEW045
NOTAMs
Click for the latest NOTAMs
NOTAMs are issued by the DoD/FAA and will open in a separate window not controlled by AirNav.

 

 
 

Would you like to see your business listed on this page?

 If your business provides an interesting product or service to pilots, flight crews, aircraft, or users of the Riverside Medical Center Heliport, you should consider listing it here.  To start the listing process, click on the button below
 
Add a business
 

Other Pages about Riverside Medical Center Heliport

Update a link
 
Copyright © AirNav, LLC. All rights reserved. Privacy Policy  Contact